Meteo Giornale » Osservazioni meteo Italia » Perugia

ore: 03:50 - Osservazioni Meteo Perugia
Lat. 43° 5' N Lon. 12° 30' E Alt. 208 metri s.l.m.

molto_nuvoloso Europe/Rome

23 °C

Molto Nuvoloso

Temp. 24 Ore

16 °C

34 °C

Nord-Ovest

11.1 Km/h

Dew point 14 °C

Umidità 56 %

Visibilità  10 Km

Il sole sorge alle ore 06:03

Il sole tramonta alle ore 20:28

Data e Ora Cielo e Fenomeni T °C DP °C Um. % Pres. hPa Vis. km Vento km/h
Oggi h: 03:50 molto_nuvoloso Molto Nuvoloso 23 14 56 1010 10 NO 11.1
Oggi h: 03:20 molto_nuvoloso Molto Nuvoloso 23 13 53 1010 10 O/NO 7.4
Oggi h: 02:50 molto_nuvoloso Molto Nuvoloso 24 13 50 1010 10 O 7.4
Oggi h: 02:20 poco_nuvoloso Poco Nuvoloso 23 13 53 1010 10 O 9.3
Oggi h: 01:50 sereno Sereno 23 14 56 1010 10 O 7.4
Oggi h: 01:20 poco_nuvoloso Poco Nuvoloso 24 14 53 1010 10 SO 11.1
Oggi h: 00:50 molto_nuvoloso Molto Nuvoloso 25 15 53 1010 10 SO 9.3
Oggi h: 00:20 nuvoloso Nuvoloso 25 16 57 1010 10 O 9.3
Ieri h: 23:50 molto_nuvoloso Molto Nuvoloso 26 16 54 1010 10 SO 13
Ieri h: 23:20 molto_nuvoloso Molto Nuvoloso 27 16 50 1010 10 O/SO 13
Ieri h: 22:50 molto_nuvoloso Molto Nuvoloso 27 15 47 1010 10 O/SO 13
Ieri h: 22:20 molto_nuvoloso Molto Nuvoloso 28 14 42 1010 10 O/SO 9.3
Ieri h: 21:50 molto_nuvoloso Molto Nuvoloso 28 13 39 1010 10 O 11.1
Ieri h: 21:20 poco_nuvoloso Poco Nuvoloso 28 13 39 1010 10 SO 11.1
Ieri h: 20:50 poco_nuvoloso Poco Nuvoloso 28 12 37 1010 10 O/SO 13
Ieri h: 20:20 sereno Sereno 29 12 35 1010 10 O/SO 16.7
Ieri h: 19:50 poco_nuvoloso Poco Nuvoloso 30 12 33 1009 10 O/SO 16.7
Ieri h: 19:20 molto_nuvoloso Molto Nuvoloso 31 12 31 1009 10 O/SO 20.3
Ieri h: 18:50 molto_nuvoloso Molto Nuvoloso 32 12 29 1009 10 SO 20.3
Ieri h: 18:20 poco_nuvoloso Poco Nuvoloso 33 12 27 1009 10 SO 20.3
Ieri h: 17:50 molto_nuvoloso Molto Nuvoloso 33 10 24 1009 10 SO 18.5
Ieri h: 17:20 poco_nuvoloso Poco Nuvoloso 34 10 23 1010 10 O/SO 18.5
Ieri h: 16:50 nuvoloso Nuvoloso 34 10 23 1010 10 O/SO 18.5
Ieri h: 16:20 sereno Sereno 33 9 22 1010 10 SO 18.5
Ieri h: 15:50 sereno Sereno 33 10 24 1011 10 N 3.7
Ieri h: 15:20 sereno Sereno 33 10 24 1011 10 N 3.7
Ieri h: 14:50 sereno Sereno 32 10 25 1012 10 N 5.5
Ieri h: 14:20 sereno Sereno 31 10 27 1012 10 N 5.5
Ieri h: 13:50 sereno Sereno 31 11 29 1013 10 N 5.5
Ieri h: 13:20 sereno Sereno 30 11 30 1013 10 N 5.5
Ieri h: 11:50 sereno Sereno 27 14 44 1014 10 N 5.5
Ieri h: 11:20 sereno Sereno 26 14 47 1014 10 NO 7.4
Ieri h: 10:50 sereno Sereno 25 15 53 1015 10 N 3.7
Ieri h: 10:20 sereno Sereno 24 15 57 1015 10 N 5.5
Ieri h: 09:50 sereno Sereno 23 15 60 1015 10 N/NO 7.4
Ieri h: 09:20 sereno Sereno 22 15 64 1015 10 N/NO 7.4
Ieri h: 08:50 sereno Sereno 21 15 68 1015 10 N 11.1
Ieri h: 08:20 poco_nuvoloso Poco Nuvoloso 20 15 72 1015 10 N/NO 9.3
Ieri h: 07:50 molto_nuvoloso Molto Nuvoloso 18 13 72 1015 10 N 7.4
Ieri h: 07:20 molto_nuvoloso Molto Nuvoloso 18 15 82 1015 10 N 11.1
Ieri h: 06:50 poco_nuvoloso Poco Nuvoloso 17 14 82 1015 10 N 3.7
Ieri h: 06:20 sereno Sereno 16 13 82 1015 10 N 1.8
Ieri h: 05:50 molto_nuvoloso Molto Nuvoloso 16 13 82 1015 10 N 3.7
Ieri h: 05:20 sereno Sereno 17 15 88 1015 10 N 5.5
Ieri h: 04:50 sereno Sereno 17 15 88 1015 10 N 5.5